Route Details

Aircraft Information
Group: European Fleet
Types: A30F, A31F, B738
Route Data
Distance: 396nm
Duration: 1h 10m
Origin METAR: EGFF 171120Z 06012KT 9999 SCT012 SCT015 19/16 Q1013
Dest. METAR: EDDK 171120Z AUTO 26005KT 200V330 CAVOK 25/15 Q1011 NOSIG
Freight Data
(for Aug 18, 2022)
Load Factor:
101%
Manifested Cargo: 75,297lbs
Financial History
Total Freight: 124,396lbs
Average Load: 0lbs/flt
Fuel Used: 23,239lbs
Avg. Fuel Used: 0lbs/flt
Fuel Expense: $15,338
Avg. Fuel Expense: $0
Avg. Fuel Cost: $0/lbs
Total Gross Income: $286,111
Pilot Pay: $508
Total Expenses: $60,002
Total Revenue: $209,889
Average Revenue: $0

Capitol Logistics 565




EGFF
Cardiff International Airport
Cardiff, GB
EDDK
Cologne Bonn Airport
Cologne, DE